createdAt,value
2023-04-22T00:01:56.737Z,36.47
2023-04-22T00:04:26.191Z,39.10
2023-04-22T00:06:53.497Z,38.17
2023-04-22T00:09:21.057Z,36.27
2023-04-22T00:11:48.382Z,32.00
2023-04-22T00:14:15.810Z,39.43
2023-04-22T00:16:43.256Z,37.03
2023-04-22T00:19:10.660Z,36.50
2023-04-22T00:21:38.126Z,34.93
2023-04-22T00:24:05.730Z,38.27
2023-04-22T00:26:33.090Z,31.53
2023-04-22T00:29:01.118Z,36.40
2023-04-22T00:31:28.396Z,37.87
2023-04-22T00:33:56.058Z,32.47
2023-04-22T00:36:23.990Z,35.60
2023-04-22T00:38:51.907Z,34.83
2023-04-22T00:41:19.367Z,32.57
2023-04-22T00:43:47.095Z,31.57
2023-04-22T00:46:16.190Z,33.40
2023-04-22T00:48:43.548Z,35.53
2023-04-22T00:51:10.787Z,35.57
2023-04-22T00:53:37.927Z,39.40
2023-04-22T00:56:05.657Z,33.63
2023-04-22T00:58:33.312Z,36.73
2023-04-22T01:01:00.567Z,28.90
2023-04-22T01:03:30.836Z,33.70
2023-04-22T01:05:58.829Z,33.58
2023-04-22T01:08:29.492Z,34.77
2023-04-22T01:10:57.744Z,32.87
2023-04-22T01:13:24.965Z,33.77
2023-04-22T01:15:53.065Z,36.40
2023-04-22T01:18:20.393Z,33.17
2023-04-22T01:20:47.798Z,33.30
2023-04-22T01:23:19.929Z,34.87
2023-04-22T01:25:47.617Z,28.53
2023-04-22T01:28:15.546Z,31.53
2023-04-22T01:30:43.948Z,32.23
2023-04-22T01:33:11.794Z,33.83
2023-04-22T01:35:39.611Z,33.83
2023-04-22T01:38:07.832Z,29.37
2023-04-22T01:40:35.224Z,26.70
2023-04-22T01:43:03.036Z,34.20
2023-04-22T01:45:30.489Z,34.03
2023-04-22T01:47:57.668Z,36.93
2023-04-22T01:50:25.611Z,30.87
2023-04-22T01:52:53.126Z,35.53
2023-04-22T01:55:22.399Z,34.23
2023-04-22T01:57:49.748Z,36.17
2023-04-22T02:00:17.195Z,31.90
2023-04-22T02:02:47.715Z,36.43
2023-04-22T02:05:16.152Z,31.47
2023-04-22T02:07:46.272Z,31.80
2023-04-22T02:12:44.698Z,25.73
2023-04-22T02:15:14.459Z,34.00
2023-04-22T02:17:42.435Z,33.53
2023-04-22T02:20:11.575Z,31.27
2023-04-22T02:22:39.126Z,35.57
2023-04-22T02:25:07.146Z,29.97
2023-04-22T02:27:34.714Z,27.97
2023-04-22T02:30:05.324Z,34.07
2023-04-22T02:32:34.985Z,36.13
2023-04-22T02:35:03.850Z,32.97
2023-04-22T02:37:31.294Z,29.13
2023-04-22T02:39:58.503Z,31.73
2023-04-22T02:42:26.375Z,30.67
2023-04-22T02:44:53.818Z,29.70
2023-04-22T02:47:22.482Z,30.97
2023-04-22T02:49:49.747Z,25.50
2023-04-22T02:52:17.311Z,30.17
2023-04-22T02:54:44.423Z,33.27
2023-04-22T02:57:11.860Z,34.60
2023-04-22T02:59:39.394Z,37.50
2023-04-22T03:02:07.222Z,28.83
2023-04-22T03:04:58.528Z,29.80
2023-04-22T03:07:25.639Z,28.77
2023-04-22T03:09:53.794Z,31.53
2023-04-22T03:12:21.078Z,32.53
2023-04-22T03:14:48.335Z,26.63
2023-04-22T03:17:16.268Z,26.73
2023-04-22T03:19:43.919Z,33.23
2023-04-22T03:22:11.408Z,30.97
2023-04-22T03:24:38.761Z,29.10
2023-04-22T03:27:10.631Z,30.63
2023-04-22T03:29:38.459Z,34.73
2023-04-22T03:32:06.060Z,32.13
2023-04-22T03:34:37.248Z,29.73
2023-04-22T03:37:06.417Z,28.83
2023-04-22T03:39:34.142Z,28.93
2023-04-22T03:42:01.920Z,31.67
2023-04-22T03:44:30.112Z,28.00
2023-04-22T03:46:57.575Z,30.37
2023-04-22T03:49:30.991Z,29.37
2023-04-22T03:51:58.551Z,29.93
2023-04-22T03:54:26.722Z,28.53
2023-04-22T03:56:54.124Z,27.87
2023-04-22T03:59:23.214Z,26.40
2023-04-22T04:01:51.660Z,26.20
2023-04-22T04:04:23.790Z,30.43
2023-04-22T04:06:57.022Z,31.60
2023-04-22T04:09:24.650Z,28.43
2023-04-22T04:11:52.338Z,33.50
2023-04-22T04:14:19.604Z,30.57
2023-04-22T04:16:48.384Z,27.13
2023-04-22T04:19:26.130Z,28.07
2023-04-22T04:21:53.649Z,30.23
2023-04-22T04:24:22.532Z,29.13
2023-04-22T04:26:52.239Z,30.05
2023-04-22T04:29:24.519Z,24.97
2023-04-22T04:34:34.576Z,25.43
2023-04-22T04:37:04.372Z,29.93
2023-04-22T04:39:45.009Z,27.30
2023-04-22T04:42:15.139Z,31.23
2023-04-22T04:44:51.241Z,28.90
2023-04-22T04:47:20.282Z,28.27
2023-04-22T04:49:48.066Z,28.77
2023-04-22T04:52:15.638Z,25.83
2023-04-22T04:54:42.735Z,28.03
2023-04-22T04:57:10.590Z,31.17
2023-04-22T04:59:40.850Z,27.40
2023-04-22T05:02:08.574Z,30.43
2023-04-22T05:04:36.069Z,32.67
2023-04-22T05:07:15.434Z,29.60
2023-04-22T05:09:51.269Z,28.83
2023-04-22T05:12:42.086Z,32.17
2023-04-22T05:15:16.049Z,31.50
2023-04-22T05:17:44.075Z,36.63
2023-04-22T05:20:12.255Z,32.17
2023-04-22T05:22:46.283Z,32.70
2023-04-22T05:29:01.061Z,31.60
2023-04-22T05:32:13.111Z,33.20
2023-04-22T05:34:41.240Z,28.63
2023-04-22T05:37:11.105Z,33.77
2023-04-22T05:39:43.733Z,33.83
2023-04-22T05:42:12.690Z,31.00
2023-04-22T05:44:41.136Z,30.17
2023-04-22T05:47:09.114Z,32.37
2023-04-22T05:49:36.714Z,28.97
2023-04-22T05:52:24.195Z,32.33
2023-04-22T05:55:12.594Z,37.33
2023-04-22T05:57:40.312Z,35.37
2023-04-22T06:00:18.185Z,34.60
2023-04-22T06:02:57.291Z,35.97
2023-04-22T06:05:24.785Z,34.70
2023-04-22T06:07:51.887Z,34.27
2023-04-22T06:10:19.139Z,39.93
2023-04-22T06:12:48.726Z,34.77
2023-04-22T06:15:16.058Z,34.22
2023-04-22T06:17:44.464Z,35.70
2023-04-22T06:20:12.603Z,34.23
2023-04-22T06:22:39.704Z,36.20
2023-04-22T06:28:25.169Z,44.23
2023-04-22T06:32:01.602Z,43.63
2023-04-22T06:34:51.574Z,42.38
2023-04-22T06:37:20.033Z,40.10
2023-04-22T06:39:47.928Z,39.13
2023-04-22T06:43:47.321Z,47.70
2023-04-22T06:46:39.297Z,44.03
2023-04-22T06:57:36.376Z,40.63
2023-04-22T07:00:43.644Z,43.13
2023-04-22T07:03:50.989Z,45.42
2023-04-22T07:09:46.904Z,45.08
2023-04-22T07:12:24.390Z,46.63
2023-04-22T07:15:00.210Z,47.80
2023-04-22T07:17:33.969Z,49.88
2023-04-22T07:20:11.461Z,51.97
2023-04-22T07:22:39.526Z,43.85
2023-04-22T07:25:07.854Z,50.40
2023-04-22T07:27:37.156Z,47.88
2023-04-22T07:30:08.579Z,51.83
2023-04-22T07:32:35.978Z,51.08
2023-04-22T07:35:04.370Z,55.20
2023-04-22T07:37:33.186Z,55.70
2023-04-22T07:40:00.627Z,56.13
2023-04-22T07:42:27.893Z,55.30
2023-04-22T07:44:55.415Z,53.22
2023-04-22T07:47:22.825Z,50.47
2023-04-22T07:49:50.233Z,52.30
2023-04-22T07:52:21.255Z,52.78
2023-04-22T07:54:48.397Z,56.60
2023-04-22T07:57:15.596Z,47.38
2023-04-22T07:59:51.153Z,47.72
2023-04-22T08:02:30.169Z,43.50
2023-04-22T08:05:03.836Z,45.25
2023-04-22T08:07:33.457Z,42.78
2023-04-22T08:10:01.167Z,41.85
2023-04-22T08:12:28.710Z,45.63
2023-04-22T08:15:01.475Z,48.47
2023-04-22T08:17:28.944Z,45.75
2023-04-22T08:20:05.883Z,37.70
2023-04-22T08:22:39.588Z,34.97
2023-04-22T08:25:07.961Z,33.50
2023-04-22T08:27:35.477Z,35.97
2023-04-22T08:30:06.674Z,37.45
2023-04-22T08:32:34.591Z,32.65
2023-04-22T08:35:07.537Z,29.27
2023-04-22T08:37:35.621Z,24.55
2023-04-22T08:40:15.206Z,26.65
2023-04-22T08:42:52.921Z,23.73
2023-04-22T08:45:20.481Z,24.42
2023-04-22T08:47:47.924Z,27.23
2023-04-22T08:50:18.277Z,23.20
2023-04-22T08:52:45.625Z,24.75
2023-04-22T08:55:13.655Z,22.52
2023-04-22T08:57:41.792Z,21.50
2023-04-22T09:00:10.096Z,20.48
2023-04-22T09:02:38.132Z,19.13
2023-04-22T09:05:06.810Z,18.23
2023-04-22T09:07:42.981Z,17.45
2023-04-22T09:10:14.082Z,19.92
2023-04-22T09:12:41.839Z,16.10
2023-04-22T09:15:12.201Z,14.38
2023-04-22T09:17:39.557Z,14.40
2023-04-22T09:20:21.341Z,14.02
2023-04-22T09:28:37.280Z,13.23
2023-04-22T09:31:05.222Z,16.83
2023-04-22T09:33:34.860Z,16.80
2023-04-22T09:36:03.067Z,13.60
2023-04-22T09:38:31.652Z,15.38
2023-04-22T09:40:58.920Z,15.00
2023-04-22T09:43:27.330Z,13.30
2023-04-22T09:45:55.166Z,17.15
2023-04-22T09:48:25.337Z,15.93
2023-04-22T09:50:54.306Z,15.43
2023-04-22T09:53:22.474Z,15.60
2023-04-22T09:56:15.261Z,16.80
2023-04-22T09:59:31.513Z,12.38
2023-04-22T10:02:06.093Z,14.23
2023-04-22T10:04:36.350Z,15.10
2023-04-22T10:07:06.609Z,13.63
2023-04-22T10:09:36.145Z,13.70
2023-04-22T10:12:04.790Z,15.85
2023-04-22T10:14:36.059Z,15.82
2023-04-22T10:17:06.284Z,16.00
2023-04-22T10:19:40.226Z,13.20
2023-04-22T10:22:08.457Z,13.55
2023-04-22T10:24:37.592Z,14.65
2023-04-22T10:27:07.118Z,13.85
2023-04-22T10:29:48.250Z,12.57
2023-04-22T10:32:18.998Z,11.88
2023-04-22T10:34:50.012Z,12.55
2023-04-22T10:37:21.925Z,15.90
2023-04-22T10:40:10.074Z,14.13
2023-04-22T10:42:41.744Z,13.18
2023-04-22T10:45:18.150Z,13.30
2023-04-22T10:47:46.465Z,14.73
2023-04-22T10:54:03.432Z,14.40
2023-04-22T10:59:48.786Z,13.68
2023-04-22T11:02:16.671Z,13.70
2023-04-22T11:04:50.092Z,13.75
2023-04-22T11:07:41.198Z,13.02
2023-04-22T11:10:37.202Z,12.35
2023-04-22T11:13:14.732Z,14.15
2023-04-22T11:15:56.586Z,13.32
2023-04-22T11:18:28.789Z,12.13
2023-04-22T11:20:56.106Z,14.00
2023-04-22T11:23:27.559Z,12.40
2023-04-22T11:25:59.832Z,12.88
2023-04-22T11:28:27.179Z,11.07
2023-04-22T11:31:02.832Z,11.25
2023-04-22T11:33:41.097Z,9.73
2023-04-22T11:36:28.337Z,8.93
2023-04-22T11:38:58.077Z,8.32
2023-04-22T11:41:30.308Z,11.07
2023-04-22T11:43:57.746Z,8.70
2023-04-22T11:46:32.004Z,9.27
2023-04-22T11:49:20.142Z,9.98
2023-04-22T11:51:57.385Z,8.68
2023-04-22T11:54:34.906Z,8.68
2023-04-22T11:57:06.122Z,6.93
2023-04-22T11:59:33.810Z,5.25
2023-04-22T12:02:01.463Z,6.97
2023-04-22T12:04:28.813Z,9.13
2023-04-22T12:06:56.121Z,7.30
2023-04-22T12:09:37.973Z,7.60
2023-04-22T12:12:08.592Z,6.93
2023-04-22T12:14:35.978Z,8.13
2023-04-22T12:17:18.918Z,9.30
2023-04-22T12:19:56.340Z,8.02
2023-04-22T12:22:43.985Z,11.07
2023-04-22T12:25:24.690Z,8.48
2023-04-22T12:28:05.319Z,9.07
2023-04-22T12:30:33.636Z,10.10
2023-04-22T12:33:03.901Z,8.15
2023-04-22T12:38:13.898Z,8.50
2023-04-22T12:40:47.651Z,9.63
2023-04-22T12:43:20.248Z,8.70
2023-04-22T12:45:47.850Z,7.50
2023-04-22T12:51:17.531Z,8.60
2023-04-22T12:53:54.261Z,8.75
2023-04-22T12:56:36.451Z,9.10
2023-04-22T12:59:08.003Z,8.43
2023-04-22T13:01:35.975Z,8.38
2023-04-22T13:04:14.375Z,8.13
2023-04-22T13:06:44.090Z,8.48
2023-04-22T13:09:14.056Z,9.07
2023-04-22T13:11:44.868Z,10.13
2023-04-22T13:14:12.358Z,9.98
2023-04-22T13:16:42.362Z,12.27
2023-04-22T13:19:12.701Z,9.50
2023-04-22T13:24:07.433Z,10.13
2023-04-22T13:26:34.972Z,8.55
2023-04-22T13:29:05.055Z,8.52
2023-04-22T13:31:36.179Z,10.00
2023-04-22T13:34:15.512Z,8.73
2023-04-22T13:36:52.140Z,12.30
2023-04-22T13:39:25.282Z,10.52
2023-04-22T13:41:57.023Z,10.48
2023-04-22T13:44:25.323Z,12.10
2023-04-22T13:46:55.363Z,12.18
2023-04-22T13:49:25.002Z,10.93
2023-04-22T13:52:09.597Z,11.25
2023-04-22T13:54:37.196Z,13.38
2023-04-22T13:57:07.626Z,11.02
2023-04-22T13:59:46.438Z,11.48
2023-04-22T14:02:16.873Z,11.68
2023-04-22T14:05:14.533Z,9.95
2023-04-22T14:07:43.071Z,11.00
2023-04-22T14:10:12.290Z,9.77
2023-04-22T14:12:39.924Z,13.32
2023-04-22T14:15:11.258Z,10.43
2023-04-22T14:17:39.735Z,13.93
2023-04-22T14:20:07.823Z,9.68
2023-04-22T14:22:38.225Z,11.10
2023-04-22T14:27:33.132Z,11.02
2023-04-22T14:30:01.415Z,10.38
2023-04-22T14:32:29.442Z,12.13
2023-04-22T14:34:56.716Z,12.77
2023-04-22T14:37:24.115Z,12.48
2023-04-22T14:39:51.386Z,9.63
2023-04-22T14:42:19.675Z,10.48
2023-04-22T14:44:46.890Z,10.43
2023-04-22T14:47:14.324Z,12.43
2023-04-22T14:49:41.781Z,10.45
2023-04-22T14:52:09.334Z,11.52
2023-04-22T14:54:36.381Z,10.80
2023-04-22T14:57:06.170Z,10.02
2023-04-22T14:59:34.582Z,9.43
2023-04-22T15:02:01.889Z,10.60
2023-04-22T15:04:30.664Z,10.88
2023-04-22T15:06:57.997Z,11.93
2023-04-22T15:09:25.164Z,10.20
2023-04-22T15:12:06.837Z,10.75
2023-04-22T15:14:36.620Z,9.57
2023-04-22T15:17:04.810Z,8.30
2023-04-22T15:19:35.329Z,9.73
2023-04-22T15:22:05.976Z,8.43
2023-04-22T15:28:37.124Z,6.80
2023-04-22T15:31:05.531Z,6.82
2023-04-22T15:33:35.158Z,5.88
2023-04-22T15:36:26.963Z,7.15
2023-04-22T15:38:56.324Z,7.20
2023-04-22T15:41:26.685Z,6.83
2023-04-22T15:43:56.224Z,6.72
2023-04-22T15:46:23.503Z,7.95
2023-04-22T15:48:51.041Z,9.10
2023-04-22T15:51:19.099Z,8.05
2023-04-22T15:53:46.569Z,8.38
2023-04-22T15:56:14.517Z,7.80
2023-04-22T15:58:44.244Z,6.40
2023-04-22T16:01:20.014Z,7.00
2023-04-22T16:03:48.621Z,8.02
2023-04-22T16:06:16.672Z,7.13
2023-04-22T16:08:45.506Z,7.70
2023-04-22T16:11:14.237Z,8.80
2023-04-22T16:13:41.894Z,6.65
2023-04-22T16:16:09.376Z,6.45
2023-04-22T16:18:41.422Z,6.28
2023-04-22T16:21:19.527Z,6.70
2023-04-22T16:24:01.980Z,6.70
2023-04-22T16:26:43.308Z,6.10
2023-04-22T16:29:21.869Z,7.18
2023-04-22T16:31:49.671Z,8.05
2023-04-22T16:34:17.200Z,8.32
2023-04-22T16:36:44.395Z,6.80
2023-04-22T16:39:14.980Z,6.25
2023-04-22T16:41:48.537Z,6.28
2023-04-22T16:44:15.731Z,6.10
2023-04-22T16:46:43.119Z,6.00
2023-04-22T16:49:11.921Z,6.68
2023-04-22T16:51:40.000Z,7.53
2023-04-22T16:54:07.936Z,8.00
2023-04-22T16:56:35.603Z,6.68
2023-04-22T16:59:05.918Z,6.63
2023-04-22T17:01:36.401Z,5.97
2023-04-22T17:04:06.532Z,8.10
2023-04-22T17:06:38.520Z,6.63
2023-04-22T17:13:43.208Z,5.95
2023-04-22T17:16:12.803Z,6.65
2023-04-22T17:18:40.384Z,6.07
2023-04-22T17:21:07.604Z,6.00
2023-04-22T17:23:38.366Z,5.90
2023-04-22T17:26:05.904Z,5.95
2023-04-22T17:28:33.979Z,7.63
2023-04-22T17:31:01.383Z,8.10
2023-04-22T17:33:31.478Z,6.45
2023-04-22T17:38:28.522Z,5.43
2023-04-22T17:40:58.980Z,7.65
2023-04-22T17:43:27.076Z,7.53
2023-04-22T17:45:54.175Z,5.13
2023-04-22T17:48:21.384Z,5.72
2023-04-22T17:50:49.229Z,5.47
2023-04-22T17:53:16.656Z,6.22
2023-04-22T17:55:46.482Z,4.78
2023-04-22T17:58:13.894Z,5.85
2023-04-22T18:00:41.099Z,5.97
2023-04-22T18:03:08.348Z,5.35
2023-04-22T18:05:36.193Z,4.78
2023-04-22T18:08:04.519Z,5.22
2023-04-22T18:10:31.732Z,5.45
2023-04-22T18:12:59.334Z,5.97
2023-04-22T18:15:26.616Z,5.45
2023-04-22T18:17:53.923Z,5.05
2023-04-22T18:20:21.942Z,6.00
2023-04-22T18:22:49.830Z,6.35
2023-04-22T18:25:16.957Z,5.95
2023-04-22T18:27:44.527Z,5.43
2023-04-22T18:30:11.775Z,7.80
2023-04-22T18:32:39.236Z,7.82
2023-04-22T18:35:07.185Z,7.68
2023-04-22T18:37:35.022Z,5.97
2023-04-22T18:40:03.010Z,5.10
2023-04-22T18:42:30.535Z,5.25
2023-04-22T18:44:57.706Z,5.85
2023-04-22T18:47:24.748Z,6.60
2023-04-22T18:49:51.892Z,6.22
2023-04-22T18:52:19.391Z,6.35
2023-04-22T18:54:46.561Z,6.75
2023-04-22T18:57:13.879Z,5.95
2023-04-22T18:59:42.448Z,6.57
2023-04-22T19:02:13.353Z,8.15
2023-04-22T19:04:40.904Z,6.38
2023-04-22T19:07:08.610Z,7.40
2023-04-22T19:09:36.008Z,6.53
2023-04-22T19:12:06.544Z,6.75
2023-04-22T19:14:36.350Z,8.00
2023-04-22T19:17:03.811Z,7.47
2023-04-22T19:19:36.135Z,7.22
2023-04-22T19:22:07.046Z,7.13
2023-04-22T19:24:37.588Z,7.45
2023-04-22T19:27:07.105Z,6.65
2023-04-22T19:29:37.765Z,7.05
2023-04-22T19:32:05.279Z,7.25
2023-04-22T19:34:34.876Z,8.40
2023-04-22T19:37:03.493Z,7.28
2023-04-22T19:39:31.393Z,8.20
2023-04-22T19:41:58.738Z,7.88
2023-04-22T19:44:26.277Z,8.05
2023-04-22T19:46:53.565Z,8.85
2023-04-22T19:49:21.644Z,9.75
2023-04-22T19:51:49.257Z,8.57
2023-04-22T19:54:16.961Z,10.38
2023-04-22T19:56:44.370Z,8.98
2023-04-22T19:59:11.579Z,9.45
2023-04-22T20:01:39.129Z,9.52
2023-04-22T20:04:06.706Z,9.35
2023-04-22T20:06:35.082Z,11.18
2023-04-22T20:09:05.385Z,10.38
2023-04-22T20:11:34.208Z,10.50
2023-04-22T20:14:03.493Z,10.65
2023-04-22T20:16:35.394Z,10.47
2023-04-22T20:19:12.546Z,10.60
2023-04-22T20:21:40.223Z,14.77
2023-04-22T20:24:07.390Z,9.45
2023-04-22T20:26:35.336Z,12.13
2023-04-22T20:29:04.587Z,13.27
2023-04-22T20:31:34.664Z,15.23
2023-04-22T20:34:05.622Z,11.75
2023-04-22T20:36:37.456Z,13.23
2023-04-22T20:39:09.231Z,12.25
2023-04-22T20:41:42.235Z,14.32
2023-04-22T20:44:09.749Z,14.35
2023-04-22T20:46:42.466Z,11.48
2023-04-22T20:49:13.088Z,12.15
2023-04-22T20:51:51.913Z,13.43
2023-04-22T20:54:28.371Z,11.35
2023-04-22T20:57:07.510Z,12.25
2023-04-22T20:59:34.951Z,13.13
2023-04-22T21:02:04.223Z,14.68
2023-04-22T21:04:31.749Z,14.77
2023-04-22T21:06:59.333Z,15.25
2023-04-22T21:09:27.146Z,15.70
2023-04-22T21:11:55.107Z,17.15
2023-04-22T21:14:27.452Z,15.55
2023-04-22T21:17:30.303Z,16.50
2023-04-22T21:20:08.371Z,15.80
2023-04-22T21:22:41.861Z,18.00
2023-04-22T21:25:11.861Z,16.88
2023-04-22T21:27:39.274Z,20.23
2023-04-22T21:30:07.516Z,17.17
2023-04-22T21:32:40.645Z,19.38
2023-04-22T21:35:08.788Z,19.85
2023-04-22T21:37:37.497Z,19.55
2023-04-22T21:40:08.679Z,20.15
2023-04-22T21:42:38.790Z,17.88
2023-04-22T21:45:08.981Z,21.75
2023-04-22T21:47:36.190Z,20.88
2023-04-22T21:50:06.948Z,20.55
2023-04-22T21:52:37.711Z,20.75
2023-04-22T21:55:06.279Z,20.05
2023-04-22T21:57:36.716Z,18.95
2023-04-22T22:00:18.998Z,20.30
2023-04-22T22:02:47.197Z,19.07
2023-04-22T22:05:15.459Z,21.55
2023-04-22T22:07:44.922Z,17.33
2023-04-22T22:10:16.967Z,18.63
2023-04-22T22:12:47.257Z,18.60
2023-04-22T22:15:16.424Z,21.30
2023-04-22T22:17:44.118Z,20.13
2023-04-22T22:20:12.910Z,18.38
2023-04-22T22:22:44.508Z,18.05
2023-04-22T22:25:16.002Z,17.83
2023-04-22T22:27:47.157Z,18.98
2023-04-22T22:30:23.202Z,17.88
2023-04-22T22:32:50.821Z,19.98
2023-04-22T22:35:18.071Z,18.15
2023-04-22T22:37:45.618Z,14.43
2023-04-22T22:40:13.038Z,19.40
2023-04-22T22:42:40.143Z,14.82
2023-04-22T22:45:07.987Z,17.08
2023-04-22T22:47:35.432Z,16.65
2023-04-22T22:50:02.724Z,11.65
2023-04-22T22:52:30.191Z,12.23
2023-04-22T22:54:57.232Z,15.82
2023-04-22T22:57:24.393Z,12.60
2023-04-22T22:59:51.667Z,11.30
2023-04-22T23:02:18.883Z,10.00
2023-04-22T23:04:46.571Z,11.27
2023-04-22T23:07:14.840Z,7.88
2023-04-22T23:09:42.011Z,8.27
2023-04-22T23:12:09.208Z,8.70
2023-04-22T23:14:36.754Z,7.57
2023-04-22T23:17:06.815Z,8.30
2023-04-22T23:19:37.159Z,7.57
2023-04-22T23:22:06.944Z,8.82
2023-04-22T23:24:37.449Z,8.68
2023-04-22T23:27:05.106Z,9.43
2023-04-22T23:29:35.425Z,7.63
2023-04-22T23:32:04.264Z,6.75
2023-04-22T23:34:33.919Z,7.90
2023-04-22T23:37:03.918Z,7.15
2023-04-22T23:39:31.204Z,5.40
2023-04-22T23:41:58.452Z,5.55
2023-04-22T23:44:25.505Z,5.93
2023-04-22T23:46:52.587Z,5.72
2023-04-22T23:49:20.408Z,7.53
2023-04-22T23:51:47.569Z,4.03
2023-04-22T23:54:16.088Z,5.53
2023-04-22T23:56:44.016Z,5.22
2023-04-22T23:59:12.077Z,5.13
